sensor_id;sensor_type;location;lat;lon;timestamp;pressure;altitude;pressure_sealevel;temperature;humidity
30081;BME280;16902;50.816;12.828;2023-03-22T00:03:42;97491.66;;;7.83;100.00
30081;BME280;16902;50.816;12.828;2023-03-22T00:08:47;97499.72;;;7.48;100.00
30081;BME280;16902;50.816;12.828;2023-03-22T00:13:51;97498.66;;;7.27;100.00
30081;BME280;16902;50.816;12.828;2023-03-22T00:18:54;97488.16;;;7.12;100.00
30081;BME280;16902;50.816;12.828;2023-03-22T00:23:56;97497.09;;;7.01;100.00
30081;BME280;16902;50.816;12.828;2023-03-22T00:28:58;97494.00;;;6.89;100.00
30081;BME280;16902;50.816;12.828;2023-03-22T00:33:59;97493.34;;;6.71;100.00
30081;BME280;16902;50.816;12.828;2023-03-22T00:39:01;97490.13;;;6.44;100.00
30081;BME280;16902;50.816;12.828;2023-03-22T00:44:03;97488.63;;;6.26;100.00
30081;BME280;16902;50.816;12.828;2023-03-22T00:49:05;97489.91;;;6.22;100.00
30081;BME280;16902;50.816;12.828;2023-03-22T00:54:07;97483.97;;;6.29;100.00
30081;BME280;16902;50.816;12.828;2023-03-22T00:59:08;97478.31;;;6.42;100.00
30081;BME280;16902;50.816;12.828;2023-03-22T01:04:10;97480.59;;;6.53;100.00
30081;BME280;16902;50.816;12.828;2023-03-22T01:09:18;97474.91;;;6.33;100.00
30081;BME280;16902;50.816;12.828;2023-03-22T01:14:24;97474.06;;;6.16;100.00
30081;BME280;16902;50.816;12.828;2023-03-22T01:19:26;97470.28;;;5.95;100.00
30081;BME280;16902;50.816;12.828;2023-03-22T01:24:28;97462.19;;;5.89;100.00
30081;BME280;16902;50.816;12.828;2023-03-22T01:29:30;97455.41;;;5.88;100.00
30081;BME280;16902;50.816;12.828;2023-03-22T01:34:32;97449.25;;;5.81;100.00
30081;BME280;16902;50.816;12.828;2023-03-22T01:39:34;97439.66;;;5.65;100.00
30081;BME280;16902;50.816;12.828;2023-03-22T01:44:42;97439.09;;;5.46;100.00
30081;BME280;16902;50.816;12.828;2023-03-22T01:49:47;97435.06;;;5.43;100.00
30081;BME280;16902;50.816;12.828;2023-03-22T01:54:51;97438.41;;;5.27;100.00
30081;BME280;16902;50.816;12.828;2023-03-22T02:00:12;97433.94;;;5.11;100.00
30081;BME280;16902;50.816;12.828;2023-03-22T02:05:42;97438.13;;;5.04;100.00
30081;BME280;16902;50.816;12.828;2023-03-22T02:10:45;97440.09;;;4.84;100.00
30081;BME280;16902;50.816;12.828;2023-03-22T02:21:36;97431.88;;;4.63;100.00
30081;BME280;16902;50.816;12.828;2023-03-22T02:32:43;97424.47;;;4.24;100.00
30081;BME280;16902;50.816;12.828;2023-03-22T02:48:44;97418.75;;;4.12;100.00
30081;BME280;16902;50.816;12.828;2023-03-22T02:53:56;97415.06;;;3.97;100.00
30081;BME280;16902;50.816;12.828;2023-03-22T02:59:02;97407.97;;;3.81;100.00
30081;BME280;16902;50.816;12.828;2023-03-22T03:04:09;97406.00;;;3.75;100.00
30081;BME280;16902;50.816;12.828;2023-03-22T03:09:15;97416.28;;;3.75;100.00
30081;BME280;16902;50.816;12.828;2023-03-22T03:14:24;97421.28;;;3.59;100.00
30081;BME280;16902;50.816;12.828;2023-03-22T03:24:48;97419.53;;;3.95;100.00
30081;BME280;16902;50.816;12.828;2023-03-22T03:30:06;97426.03;;;3.99;100.00
30081;BME280;16902;50.816;12.828;2023-03-22T03:35:18;97423.00;;;4.04;100.00
30081;BME280;16902;50.816;12.828;2023-03-22T03:40:27;97421.16;;;4.14;100.00
30081;BME280;16902;50.816;12.828;2023-03-22T03:45:33;97427.22;;;4.23;100.00
30081;BME280;16902;50.816;12.828;2023-03-22T03:50:36;97429.19;;;4.29;100.00
30081;BME280;16902;50.816;12.828;2023-03-22T03:55:39;97430.06;;;4.37;100.00
30081;BME280;16902;50.816;12.828;2023-03-22T04:00:42;97433.00;;;4.25;100.00
30081;BME280;16902;50.816;12.828;2023-03-22T04:06:04;97422.34;;;4.02;100.00
30081;BME280;16902;50.816;12.828;2023-03-22T04:11:10;97425.50;;;3.96;100.00
30081;BME280;16902;50.816;12.828;2023-03-22T04:16:14;97427.63;;;4.00;100.00
30081;BME280;16902;50.816;12.828;2023-03-22T04:21:16;97428.75;;;3.98;100.00
30081;BME280;16902;50.816;12.828;2023-03-22T04:26:24;97433.47;;;4.02;100.00
30081;BME280;16902;50.816;12.828;2023-03-22T04:31:49;97423.38;;;4.09;100.00
30081;BME280;16902;50.816;12.828;2023-03-22T04:36:55;97418.00;;;4.02;100.00
30081;BME280;16902;50.816;12.828;2023-03-22T04:42:09;97414.25;;;3.97;100.00
30081;BME280;16902;50.816;12.828;2023-03-22T04:47:12;97404.91;;;4.13;100.00
30081;BME280;16902;50.816;12.828;2023-03-22T04:52:14;97401.00;;;4.27;100.00
30081;BME280;16902;50.816;12.828;2023-03-22T04:57:23;97388.31;;;4.34;100.00
30081;BME280;16902;50.816;12.828;2023-03-22T05:02:25;97403.50;;;4.37;100.00
30081;BME280;16902;50.816;12.828;2023-03-22T05:07:28;97400.66;;;4.48;100.00
30081;BME280;16902;50.816;12.828;2023-03-22T05:12:32;97394.78;;;4.56;100.00
30081;BME280;16902;50.816;12.828;2023-03-22T05:17:51;97392.56;;;4.61;100.00
30081;BME280;16902;50.816;12.828;2023-03-22T05:22:53;97380.63;;;4.60;100.00
30081;BME280;16902;50.816;12.828;2023-03-22T05:27:59;97377.19;;;4.51;100.00
30081;BME280;16902;50.816;12.828;2023-03-22T05:33:14;97385.72;;;4.52;100.00
30081;BME280;16902;50.816;12.828;2023-03-22T05:38:19;97387.22;;;4.62;100.00
30081;BME280;16902;50.816;12.828;2023-03-22T05:43:25;97380.66;;;4.68;100.00
30081;BME280;16902;50.816;12.828;2023-03-22T05:48:27;97381.97;;;4.72;100.00
30081;BME280;16902;50.816;12.828;2023-03-22T05:53:29;97378.31;;;4.75;100.00
30081;BME280;16902;50.816;12.828;2023-03-22T05:58:58;97380.09;;;4.82;100.00
30081;BME280;16902;50.816;12.828;2023-03-22T06:04:00;97378.88;;;4.95;100.00
30081;BME280;16902;50.816;12.828;2023-03-22T06:09:08;97377.72;;;5.23;100.00
30081;BME280;16902;50.816;12.828;2023-03-22T06:14:21;97378.59;;;5.40;100.00
30081;BME280;16902;50.816;12.828;2023-03-22T06:19:46;97369.13;;;5.57;100.00
30081;BME280;16902;50.816;12.828;2023-03-22T06:24:49;97365.59;;;5.66;100.00
30081;BME280;16902;50.816;12.828;2023-03-22T06:30:00;97371.75;;;5.81;100.00
30081;BME280;16902;50.816;12.828;2023-03-22T06:35:05;97376.66;;;6.09;100.00
30081;BME280;16902;50.816;12.828;2023-03-22T06:40:08;97377.13;;;6.04;100.00
30081;BME280;16902;50.816;12.828;2023-03-22T06:45:10;97377.00;;;6.06;100.00
30081;BME280;16902;50.816;12.828;2023-03-22T06:50:17;97374.72;;;6.03;100.00
30081;BME280;16902;50.816;12.828;2023-03-22T06:55:41;97380.22;;;6.00;100.00
30081;BME280;16902;50.816;12.828;2023-03-22T07:00:47;97384.41;;;6.09;100.00
30081;BME280;16902;50.816;12.828;2023-03-22T07:05:51;97386.69;;;6.12;100.00
30081;BME280;16902;50.816;12.828;2023-03-22T07:10:53;97385.88;;;6.28;100.00
30081;BME280;16902;50.816;12.828;2023-03-22T07:15:59;97392.81;;;6.52;100.00
30081;BME280;16902;50.816;12.828;2023-03-22T07:21:24;97397.47;;;6.89;100.00
30081;BME280;16902;50.816;12.828;2023-03-22T07:26:31;97396.69;;;7.36;100.00
30081;BME280;16902;50.816;12.828;2023-03-22T07:31:35;97384.38;;;7.92;100.00
30081;BME280;16902;50.816;12.828;2023-03-22T07:36:43;97394.59;;;8.77;100.00
30081;BME280;16902;50.816;12.828;2023-03-22T07:41:46;97393.09;;;9.27;100.00
30081;BME280;16902;50.816;12.828;2023-03-22T07:47:08;97393.69;;;9.59;100.00
30081;BME280;16902;50.816;12.828;2023-03-22T07:52:17;97383.03;;;9.90;100.00
30081;BME280;16902;50.816;12.828;2023-03-22T07:57:20;97388.63;;;10.29;100.00
30081;BME280;16902;50.816;12.828;2023-03-22T08:02:28;97392.19;;;10.71;100.00
30081;BME280;16902;50.816;12.828;2023-03-22T08:07:33;97383.78;;;11.04;100.00
30081;BME280;16902;50.816;12.828;2023-03-22T08:12:35;97391.16;;;11.35;100.00
30081;BME280;16902;50.816;12.828;2023-03-22T08:17:45;97384.88;;;11.64;100.00
30081;BME280;16902;50.816;12.828;2023-03-22T08:22:58;97380.81;;;11.48;100.00
30081;BME280;16902;50.816;12.828;2023-03-22T08:28:01;97375.56;;;11.42;100.00
30081;BME280;16902;50.816;12.828;2023-03-22T08:33:04;97368.25;;;11.72;100.00
30081;BME280;16902;50.816;12.828;2023-03-22T08:38:07;97367.69;;;11.83;100.00
30081;BME280;16902;50.816;12.828;2023-03-22T08:43:18;97367.94;;;12.08;100.00
30081;BME280;16902;50.816;12.828;2023-03-22T08:48:20;97379.44;;;12.40;100.00
30081;BME280;16902;50.816;12.828;2023-03-22T08:53:48;97373.75;;;13.03;100.00
30081;BME280;16902;50.816;12.828;2023-03-22T08:59:10;97360.75;;;13.48;100.00
30081;BME280;16902;50.816;12.828;2023-03-22T09:04:23;97353.00;;;13.34;100.00
30081;BME280;16902;50.816;12.828;2023-03-22T09:09:25;97358.03;;;13.23;100.00
30081;BME280;16902;50.816;12.828;2023-03-22T09:14:28;97355.13;;;13.51;100.00
30081;BME280;16902;50.816;12.828;2023-03-22T09:19:30;97350.66;;;13.58;100.00
30081;BME280;16902;50.816;12.828;2023-03-22T09:24:32;97336.31;;;13.74;100.00
30081;BME280;16902;50.816;12.828;2023-03-22T09:29:36;97345.72;;;13.81;100.00
30081;BME280;16902;50.816;12.828;2023-03-22T09:34:42;97341.38;;;14.00;100.00
30081;BME280;16902;50.816;12.828;2023-03-22T09:39:45;97344.06;;;14.44;100.00
30081;BME280;16902;50.816;12.828;2023-03-22T09:44:49;97347.25;;;14.27;100.00
30081;BME280;16902;50.816;12.828;2023-03-22T09:50:13;97337.09;;;14.06;100.00
30081;BME280;16902;50.816;12.828;2023-03-22T09:55:19;97332.47;;;14.08;100.00
30081;BME280;16902;50.816;12.828;2023-03-22T10:00:36;97327.13;;;14.21;100.00
30081;BME280;16902;50.816;12.828;2023-03-22T10:05:48;97322.03;;;14.26;100.00
30081;BME280;16902;50.816;12.828;2023-03-22T10:10:51;97319.50;;;14.88;100.00
30081;BME280;16902;50.816;12.828;2023-03-22T10:15:59;97320.53;;;15.05;100.00
30081;BME280;16902;50.816;12.828;2023-03-22T10:21:05;97303.41;;;14.41;100.00
30081;BME280;16902;50.816;12.828;2023-03-22T10:26:20;97314.47;;;14.18;100.00
30081;BME280;16902;50.816;12.828;2023-03-22T10:31:24;97306.00;;;14.16;100.00
30081;BME280;16902;50.816;12.828;2023-03-22T10:36:30;97301.09;;;14.26;100.00
30081;BME280;16902;50.816;12.828;2023-03-22T10:41:35;97294.50;;;14.24;100.00
30081;BME280;16902;50.816;12.828;2023-03-22T10:46:38;97282.59;;;14.71;100.00
30081;BME280;16902;50.816;12.828;2023-03-22T10:51:46;97297.69;;;14.94;100.00
30081;BME280;16902;50.816;12.828;2023-03-22T10:56:49;97286.97;;;14.96;100.00
30081;BME280;16902;50.816;12.828;2023-03-22T11:01:51;97288.06;;;14.88;100.00
30081;BME280;16902;50.816;12.828;2023-03-22T11:06:53;97270.53;;;15.37;100.00
30081;BME280;16902;50.816;12.828;2023-03-22T11:12:00;97264.53;;;15.48;100.00
30081;BME280;16902;50.816;12.828;2023-03-22T11:22:23;97252.25;;;16.73;100.00
30081;BME280;16902;50.816;12.828;2023-03-22T11:27:30;97235.63;;;17.36;100.00
30081;BME280;16902;50.816;12.828;2023-03-22T11:32:37;97238.09;;;17.14;100.00
30081;BME280;16902;50.816;12.828;2023-03-22T11:37:47;97217.25;;;17.24;100.00
30081;BME280;16902;50.816;12.828;2023-03-22T11:42:55;97221.84;;;18.46;100.00
30081;BME280;16902;50.816;12.828;2023-03-22T11:48:04;97224.47;;;18.08;100.00
30081;BME280;16902;50.816;12.828;2023-03-22T11:53:12;97226.16;;;18.91;100.00
30081;BME280;16902;50.816;12.828;2023-03-22T11:58:43;97218.22;;;19.13;100.00
30081;BME280;16902;50.816;12.828;2023-03-22T12:03:50;97205.66;;;19.74;100.00
30081;BME280;16902;50.816;12.828;2023-03-22T12:08:58;97201.63;;;20.04;100.00
30081;BME280;16902;50.816;12.828;2023-03-22T12:14:05;97213.53;;;18.33;100.00
30081;BME280;16902;50.816;12.828;2023-03-22T12:19:22;97197.78;;;17.25;100.00
30081;BME280;16902;50.816;12.828;2023-03-22T12:24:31;97199.97;;;17.45;100.00
30081;BME280;16902;50.816;12.828;2023-03-22T12:29:33;97185.31;;;17.04;100.00
30081;BME280;16902;50.816;12.828;2023-03-22T12:34:42;97185.69;;;16.95;100.00
30081;BME280;16902;50.816;12.828;2023-03-22T12:39:52;97188.28;;;16.43;100.00
30081;BME280;16902;50.816;12.828;2023-03-22T12:45:02;97193.13;;;16.99;100.00
30081;BME280;16902;50.816;12.828;2023-03-22T12:55:28;97176.94;;;16.78;100.00
30081;BME280;16902;50.816;12.828;2023-03-22T13:00:40;97183.16;;;18.69;100.00
30081;BME280;16902;50.816;12.828;2023-03-22T13:05:45;97188.31;;;19.89;100.00
30081;BME280;16902;50.816;12.828;2023-03-22T13:10:49;97170.03;;;20.72;100.00
30081;BME280;16902;50.816;12.828;2023-03-22T13:21:23;97157.31;;;18.93;100.00
30081;BME280;16902;50.816;12.828;2023-03-22T13:26:41;97153.38;;;18.52;100.00
30081;BME280;16902;50.816;12.828;2023-03-22T13:36:54;97132.03;;;17.25;100.00
30081;BME280;16902;50.816;12.828;2023-03-22T13:42:35;97118.47;;;16.59;100.00
30081;BME280;16902;50.816;12.828;2023-03-22T13:47:45;97115.41;;;17.36;100.00
30081;BME280;16902;50.816;12.828;2023-03-22T13:53:04;97103.44;;;18.62;100.00
30081;BME280;16902;50.816;12.828;2023-03-22T14:03:48;97097.34;;;17.62;100.00
30081;BME280;16902;50.816;12.828;2023-03-22T14:08:54;97092.28;;;20.15;88.84
30081;BME280;16902;50.816;12.828;2023-03-22T14:14:05;97083.78;;;19.29;88.88
30081;BME280;16902;50.816;12.828;2023-03-22T14:19:16;97080.53;;;19.91;87.31
30081;BME280;16902;50.816;12.828;2023-03-22T14:24:19;97085.41;;;21.89;70.87
30081;BME280;16902;50.816;12.828;2023-03-22T14:29:23;97078.53;;;20.13;76.77
30081;BME280;16902;50.816;12.828;2023-03-22T14:34:24;97075.91;;;18.31;90.78
30081;BME280;16902;50.816;12.828;2023-03-22T14:39:47;97088.03;;;18.75;91.08
30081;BME280;16902;50.816;12.828;2023-03-22T14:44:53;97097.91;;;18.63;88.93
30081;BME280;16902;50.816;12.828;2023-03-22T14:49:56;97097.28;;;17.90;84.92
30081;BME280;16902;50.816;12.828;2023-03-22T14:55:00;97102.94;;;17.65;86.47
30081;BME280;16902;50.816;12.828;2023-03-22T15:00:07;97087.84;;;16.93;93.16
30081;BME280;16902;50.816;12.828;2023-03-22T15:05:20;97090.00;;;16.56;97.19
30081;BME280;16902;50.816;12.828;2023-03-22T15:10:26;97090.28;;;15.79;100.00
30081;BME280;16902;50.816;12.828;2023-03-22T15:15:33;97094.72;;;15.90;100.00
30081;BME280;16902;50.816;12.828;2023-03-22T15:20:36;97094.50;;;15.68;100.00
30081;BME280;16902;50.816;12.828;2023-03-22T15:25:37;97092.09;;;15.79;100.00
30081;BME280;16902;50.816;12.828;2023-03-22T15:30:43;97085.56;;;16.05;100.00
30081;BME280;16902;50.816;12.828;2023-03-22T15:35:54;97089.22;;;16.15;100.00
30081;BME280;16902;50.816;12.828;2023-03-22T15:40:55;97091.75;;;16.10;100.00
30081;BME280;16902;50.816;12.828;2023-03-22T15:51:19;97083.44;;;15.78;97.05
30081;BME280;16902;50.816;12.828;2023-03-22T15:56:37;97076.69;;;15.59;95.85
30081;BME280;16902;50.816;12.828;2023-03-22T16:01:42;97088.41;;;15.45;98.64
30081;BME280;16902;50.816;12.828;2023-03-22T16:06:46;97090.00;;;15.34;100.00
30081;BME280;16902;50.816;12.828;2023-03-22T16:11:47;97083.94;;;15.22;100.00
30081;BME280;16902;50.816;12.828;2023-03-22T16:16:48;97087.44;;;15.04;100.00
30081;BME280;16902;50.816;12.828;2023-03-22T16:21:48;97085.09;;;14.84;100.00
30081;BME280;16902;50.816;12.828;2023-03-22T16:26:49;97085.16;;;14.65;100.00
30081;BME280;16902;50.816;12.828;2023-03-22T16:31:50;97095.88;;;14.46;100.00
30081;BME280;16902;50.816;12.828;2023-03-22T16:36:50;97091.28;;;14.23;100.00
30081;BME280;16902;50.816;12.828;2023-03-22T16:41:51;97105.91;;;14.12;100.00
30081;BME280;16902;50.816;12.828;2023-03-22T16:46:51;97110.63;;;14.03;100.00
30081;BME280;16902;50.816;12.828;2023-03-22T16:51:52;97102.34;;;13.88;100.00
30081;BME280;16902;50.816;12.828;2023-03-22T16:56:53;97115.84;;;13.85;100.00
30081;BME280;16902;50.816;12.828;2023-03-22T17:01:59;97112.91;;;13.75;100.00
30081;BME280;16902;50.816;12.828;2023-03-22T17:07:00;97123.06;;;13.65;100.00
30081;BME280;16902;50.816;12.828;2023-03-22T17:12:01;97115.50;;;13.56;100.00
30081;BME280;16902;50.816;12.828;2023-03-22T17:17:01;97117.38;;;13.49;100.00
30081;BME280;16902;50.816;12.828;2023-03-22T17:22:02;97119.63;;;13.39;100.00
30081;BME280;16902;50.816;12.828;2023-03-22T17:27:04;97116.91;;;13.27;100.00
30081;BME280;16902;50.816;12.828;2023-03-22T17:32:15;97120.38;;;13.15;100.00
30081;BME280;16902;50.816;12.828;2023-03-22T17:37:16;97119.47;;;13.02;100.00
30081;BME280;16902;50.816;12.828;2023-03-22T17:42:17;97123.75;;;12.90;100.00
30081;BME280;16902;50.816;12.828;2023-03-22T17:47:17;97137.09;;;12.75;100.00
30081;BME280;16902;50.816;12.828;2023-03-22T17:52:18;97134.34;;;12.64;100.00
30081;BME280;16902;50.816;12.828;2023-03-22T17:57:19;97137.63;;;12.52;100.00
30081;BME280;16902;50.816;12.828;2023-03-22T18:02:19;97142.66;;;12.41;100.00
30081;BME280;16902;50.816;12.828;2023-03-22T18:07:20;97154.13;;;12.40;100.00
30081;BME280;16902;50.816;12.828;2023-03-22T18:12:21;97145.75;;;12.24;100.00
30081;BME280;16902;50.816;12.828;2023-03-22T18:17:21;97157.41;;;12.08;100.00
30081;BME280;16902;50.816;12.828;2023-03-22T18:22:23;97160.06;;;11.95;100.00
30081;BME280;16902;50.816;12.828;2023-03-22T18:27:24;97165.88;;;11.91;100.00
30081;BME280;16902;50.816;12.828;2023-03-22T18:32:24;97171.69;;;11.86;100.00
30081;BME280;16902;50.816;12.828;2023-03-22T18:37:25;97174.25;;;11.79;100.00
30081;BME280;16902;50.816;12.828;2023-03-22T18:42:26;97177.09;;;11.71;100.00
30081;BME280;16902;50.816;12.828;2023-03-22T18:47:27;97174.09;;;11.61;100.00
30081;BME280;16902;50.816;12.828;2023-03-22T18:52:44;97182.66;;;11.28;100.00
30081;BME280;16902;50.816;12.828;2023-03-22T18:57:45;97180.56;;;10.84;100.00
30081;BME280;16902;50.816;12.828;2023-03-22T19:02:47;97176.03;;;10.58;100.00
30081;BME280;16902;50.816;12.828;2023-03-22T19:07:49;97174.06;;;10.60;100.00
30081;BME280;16902;50.816;12.828;2023-03-22T19:12:50;97171.81;;;10.50;100.00
30081;BME280;16902;50.816;12.828;2023-03-22T19:17:50;97178.97;;;10.42;100.00
30081;BME280;16902;50.816;12.828;2023-03-22T19:22:51;97187.50;;;10.29;100.00
30081;BME280;16902;50.816;12.828;2023-03-22T19:27:52;97179.94;;;10.06;100.00
30081;BME280;16902;50.816;12.828;2023-03-22T19:32:52;97178.72;;;9.74;100.00
30081;BME280;16902;50.816;12.828;2023-03-22T19:37:53;97177.75;;;9.53;100.00
30081;BME280;16902;50.816;12.828;2023-03-22T19:42:54;97168.28;;;9.46;100.00
30081;BME280;16902;50.816;12.828;2023-03-22T19:47:55;97179.22;;;9.41;100.00
30081;BME280;16902;50.816;12.828;2023-03-22T19:52:56;97171.28;;;9.43;100.00
30081;BME280;16902;50.816;12.828;2023-03-22T19:57:56;97170.38;;;9.57;100.00
30081;BME280;16902;50.816;12.828;2023-03-22T20:02:58;97167.03;;;9.42;100.00
30081;BME280;16902;50.816;12.828;2023-03-22T20:07:59;97173.31;;;9.26;100.00
30081;BME280;16902;50.816;12.828;2023-03-22T20:12:59;97174.91;;;9.06;100.00
30081;BME280;16902;50.816;12.828;2023-03-22T20:18:00;97162.09;;;9.04;100.00
30081;BME280;16902;50.816;12.828;2023-03-22T20:23:01;97159.50;;;9.04;100.00
30081;BME280;16902;50.816;12.828;2023-03-22T20:28:01;97146.03;;;9.15;100.00
30081;BME280;16902;50.816;12.828;2023-03-22T20:33:02;97153.09;;;9.21;100.00
30081;BME280;16902;50.816;12.828;2023-03-22T20:38:03;97143.13;;;9.25;100.00
30081;BME280;16902;50.816;12.828;2023-03-22T20:43:04;97140.16;;;9.28;100.00
30081;BME280;16902;50.816;12.828;2023-03-22T20:48:05;97129.91;;;9.20;100.00
30081;BME280;16902;50.816;12.828;2023-03-22T20:53:06;97135.59;;;9.30;100.00
30081;BME280;16902;50.816;12.828;2023-03-22T20:58:07;97139.03;;;9.16;100.00
30081;BME280;16902;50.816;12.828;2023-03-22T21:03:08;97134.91;;;9.21;100.00
30081;BME280;16902;50.816;12.828;2023-03-22T21:08:09;97116.66;;;9.15;100.00
30081;BME280;16902;50.816;12.828;2023-03-22T21:13:10;97114.56;;;9.04;100.00
30081;BME280;16902;50.816;12.828;2023-03-22T21:18:12;97105.34;;;9.01;100.00
30081;BME280;16902;50.816;12.828;2023-03-22T21:23:18;97111.84;;;9.12;100.00
30081;BME280;16902;50.816;12.828;2023-03-22T21:28:20;97103.50;;;9.16;100.00
30081;BME280;16902;50.816;12.828;2023-03-22T21:33:27;97109.16;;;9.26;100.00
30081;BME280;16902;50.816;12.828;2023-03-22T21:38:28;97097.63;;;9.29;100.00
30081;BME280;16902;50.816;12.828;2023-03-22T21:43:35;97093.38;;;9.28;100.00
30081;BME280;16902;50.816;12.828;2023-03-22T21:48:38;97093.97;;;9.23;100.00
30081;BME280;16902;50.816;12.828;2023-03-22T21:53:43;97092.53;;;9.21;100.00
30081;BME280;16902;50.816;12.828;2023-03-22T21:58:44;97088.94;;;9.22;100.00
30081;BME280;16902;50.816;12.828;2023-03-22T22:03:44;97079.00;;;9.25;100.00
30081;BME280;16902;50.816;12.828;2023-03-22T22:08:45;97084.56;;;9.22;100.00
30081;BME280;16902;50.816;12.828;2023-03-22T22:13:46;97080.31;;;9.71;100.00
30081;BME280;16902;50.816;12.828;2023-03-22T22:18:47;97075.63;;;11.30;100.00
30081;BME280;16902;50.816;12.828;2023-03-22T22:23:48;97073.09;;;12.08;100.00
30081;BME280;16902;50.816;12.828;2023-03-22T22:28:50;97073.78;;;12.48;100.00
30081;BME280;16902;50.816;12.828;2023-03-22T22:33:57;97080.09;;;12.66;100.00
30081;BME280;16902;50.816;12.828;2023-03-22T22:38:59;97078.66;;;12.70;100.00
30081;BME280;16902;50.816;12.828;2023-03-22T22:44:01;97073.72;;;12.55;100.00
30081;BME280;16902;50.816;12.828;2023-03-22T22:49:02;97066.22;;;12.27;100.00
30081;BME280;16902;50.816;12.828;2023-03-22T22:54:03;97060.69;;;12.03;100.00
30081;BME280;16902;50.816;12.828;2023-03-22T22:59:03;97053.47;;;11.99;100.00
30081;BME280;16902;50.816;12.828;2023-03-22T23:04:04;97051.47;;;12.01;100.00
30081;BME280;16902;50.816;12.828;2023-03-22T23:09:04;97045.25;;;12.02;100.00
30081;BME280;16902;50.816;12.828;2023-03-22T23:14:05;97045.22;;;12.08;100.00
30081;BME280;16902;50.816;12.828;2023-03-22T23:19:09;97037.38;;;12.08;100.00
30081;BME280;16902;50.816;12.828;2023-03-22T23:24:09;97026.13;;;12.15;100.00
30081;BME280;16902;50.816;12.828;2023-03-22T23:29:14;97019.06;;;12.22;100.00
30081;BME280;16902;50.816;12.828;2023-03-22T23:34:16;97026.13;;;12.15;100.00
30081;BME280;16902;50.816;12.828;2023-03-22T23:39:20;97019.94;;;12.09;100.00
30081;BME280;16902;50.816;12.828;2023-03-22T23:44:21;97014.56;;;11.97;100.00
30081;BME280;16902;50.816;12.828;2023-03-22T23:49:22;97019.19;;;11.95;100.00
30081;BME280;16902;50.816;12.828;2023-03-22T23:54:22;97003.94;;;11.92;100.00
30081;BME280;16902;50.816;12.828;2023-03-22T23:59:23;97011.59;;;11.87;100.00
